Time;durP1;ratioP1;P1;durP2;ratioP2;P2;SDS_P1;SDS_P2;PMS_P1;PMS_P2;Temp;Humidity;BMP_temperature;BMP_pressure;BME280_temperature;BME280_humidity;BME280_pressure;Samples;Min_cycle;Max_cycle;Signal;HPM_P1;HPM_P2
2022/03/15 00:00:09;;;;;;;;;7.67;7.00;;;;;-147.59;100.00;57188.72;5095484;27;45547;-77
2022/03/15 00:02:35;;;;;;;;;10.67;9.33;;;;;-147.59;100.00;57188.72;5077820;27;45404;-77
2022/03/15 00:05:01;;;;;;;;;9.67;9.00;;;;;-147.59;100.00;57188.72;5090828;27;45529;-76
2022/03/15 00:07:27;;;;;;;;;11.67;7.33;;;;;-147.59;100.00;57188.72;5095085;27;46384;-77
2022/03/15 00:09:55;;;;;;;;;9.33;7.00;;;;;-147.59;100.00;57188.72;5095771;27;45397;-77
2022/03/15 00:12:21;;;;;;;;;12.00;10.00;;;;;-147.59;100.00;57188.72;5095841;27;45437;-77
2022/03/15 00:14:46;;;;;;;;;12.00;9.00;;;;;-147.59;100.00;57188.72;5088569;27;45262;-77
2022/03/15 00:17:12;;;;;;;;;9.00;7.33;;;;;-147.59;100.00;57188.72;5076980;27;46166;-77
2022/03/15 00:19:38;;;;;;;;;11.67;9.00;;;;;-147.59;100.00;57188.72;5095491;27;45457;-76
2022/03/15 00:22:04;;;;;;;;;9.00;7.00;;;;;-147.59;100.00;57188.72;5095175;27;45510;-76
2022/03/15 00:24:29;;;;;;;;;10.33;9.00;;;;;-147.59;100.00;57188.72;5095373;27;45678;-76
2022/03/15 00:26:55;;;;;;;;;7.33;7.33;;;;;-147.59;100.00;57188.72;5096694;27;46064;-76
2022/03/15 00:29:23;;;;;;;;;10.00;10.00;;;;;-147.59;100.00;57188.72;5098977;27;45414;-76
2022/03/15 00:31:49;;;;;;;;;8.67;7.33;;;;;-147.59;100.00;57188.72;5080665;27;45614;-76
2022/03/15 00:34:15;;;;;;;;;10.67;7.67;;;;;-147.59;100.00;57188.72;5098973;27;45529;-76
2022/03/15 00:36:41;;;;;;;;;9.00;9.00;;;;;-147.59;100.00;57188.72;5098427;27;45434;-77
2022/03/15 00:39:07;;;;;;;;;11.33;9.33;;;;;-147.59;100.00;57188.72;5080379;27;45330;-75
2022/03/15 00:41:32;;;;;;;;;6.67;6.67;;;;;-147.59;100.00;57188.72;5098489;27;45437;-74
2022/03/15 00:43:58;;;;;;;;;10.00;8.00;;;;;-147.59;100.00;57188.72;5098507;27;45401;-74
2022/03/15 00:46:23;;;;;;;;;6.67;6.33;;;;;-147.59;100.00;57188.72;5097863;27;45416;-75
2022/03/15 00:48:49;;;;;;;;;10.33;7.00;;;;;-147.59;100.00;57188.72;5098599;27;45427;-75
2022/03/15 00:51:14;;;;;;;;;8.67;6.67;;;;;-147.59;100.00;57188.72;5098260;27;45407;-75
2022/03/15 00:53:40;;;;;;;;;12.67;7.00;;;;;-147.59;100.00;57188.72;5098056;27;45416;-74
2022/03/15 00:56:06;;;;;;;;;7.67;6.67;;;;;-147.59;100.00;57188.72;5078846;27;46961;-75
2022/03/15 00:58:31;;;;;;;;;11.00;7.33;;;;;-147.59;100.00;57188.72;5097086;27;45451;-75
2022/03/15 01:00:57;;;;;;;;;5.67;5.67;;;;;-147.59;100.00;57188.72;5097342;27;45635;-75
2022/03/15 01:03:25;;;;;;;;;5.67;5.67;;;;;-147.59;100.00;57188.72;5096286;27;45728;-74
2022/03/15 01:05:51;;;;;;;;;8.00;6.00;;;;;-147.59;100.00;57188.72;5077677;27;48084;-75
2022/03/15 01:08:16;;;;;;;;;6.33;5.33;;;;;-147.59;100.00;57188.72;5096351;27;45662;-74
2022/03/15 01:10:43;;;;;;;;;8.00;8.00;;;;;-147.59;100.00;57188.72;5098415;27;45330;-74
2022/03/15 01:13:09;;;;;;;;;9.00;5.33;;;;;-147.59;100.00;57188.72;5098455;27;45518;-74
2022/03/15 01:15:40;;;;;;;;;5.67;5.67;;;;;-147.59;100.00;57188.72;5098128;27;45599;-75
2022/03/15 01:18:06;;;;;;;;;10.00;7.00;;;;;-147.59;100.00;57188.72;5097760;27;45421;-74
2022/03/15 01:20:32;;;;;;;;;9.67;6.00;;;;;-147.59;100.00;57188.72;5079745;27;45426;-74
2022/03/15 01:22:57;;;;;;;;;5.67;5.67;;;;;-147.59;100.00;57188.72;5098653;27;45356;-74
2022/03/15 01:25:25;;;;;;;;;5.33;5.33;;;;;-147.59;100.00;57188.72;5079472;27;48378;-75
2022/03/15 01:27:52;;;;;;;;;5.33;5.33;;;;;-147.59;100.00;57188.72;5097949;27;45465;-74
2022/03/15 01:30:17;;;;;;;;;5.00;5.00;;;;;-147.59;100.00;57188.72;5098191;27;45368;-74
2022/03/15 01:32:42;;;;;;;;;5.33;5.00;;;;;-147.59;100.00;57188.72;5079465;27;45243;-74
2022/03/15 01:35:08;;;;;;;;;5.67;5.00;;;;;-147.59;100.00;57188.72;5097757;27;46366;-75
2022/03/15 01:37:33;;;;;;;;;6.67;4.00;;;;;-147.59;100.00;57188.72;5078716;27;45381;-74
2022/03/15 01:39:59;;;;;;;;;7.00;6.00;;;;;-147.59;100.00;57188.72;5079297;27;45252;-75
2022/03/15 01:42:24;;;;;;;;;6.33;6.00;;;;;-147.59;100.00;57188.72;5097978;27;45648;-75
2022/03/15 01:44:50;;;;;;;;;3.00;3.00;;;;;-147.59;100.00;57188.72;5098071;27;46569;-74
2022/03/15 01:47:17;;;;;;;;;5.00;5.00;;;;;-147.59;100.00;57188.72;5097475;27;45354;-74
2022/03/15 01:49:42;;;;;;;;;3.00;2.67;;;;;-147.59;100.00;57188.72;5098056;27;45425;-74
2022/03/15 01:52:15;;;;;;;;;7.67;5.00;;;;;-147.59;100.00;57188.72;5079476;27;45859;-75
2022/03/15 01:54:41;;;;;;;;;5.00;5.00;;;;;-147.59;100.00;57188.72;5097689;27;45370;-75
2022/03/15 01:57:08;;;;;;;;;7.00;4.67;;;;;-147.59;100.00;57188.72;5097586;27;45388;-75
2022/03/15 01:59:35;;;;;;;;;5.00;5.00;;;;;-147.59;100.00;57188.72;5097827;27;45304;-75
2022/03/15 02:02:00;;;;;;;;;5.00;5.00;;;;;-147.59;100.00;57188.72;5097651;27;45390;-75
2022/03/15 02:04:26;;;;;;;;;5.00;4.00;;;;;-147.59;100.00;57188.72;5097360;27;45445;-75
2022/03/15 02:07:02;;;;;;;;;6.67;4.67;;;;;-147.59;100.00;57188.72;5097646;27;45342;-75
2022/03/15 02:09:27;;;;;;;;;5.33;4.00;;;;;-147.59;100.00;57188.72;5097773;27;45486;-75
2022/03/15 02:11:53;;;;;;;;;5.00;4.67;;;;;-147.59;100.00;57188.72;5097584;27;45494;-74
2022/03/15 02:14:19;;;;;;;;;5.00;5.00;;;;;-147.59;100.00;57188.72;5097435;27;45802;-75
2022/03/15 02:16:44;;;;;;;;;4.00;4.00;;;;;-147.59;100.00;57188.72;5078752;27;45574;-75
2022/03/15 02:19:10;;;;;;;;;6.33;4.00;;;;;-147.59;100.00;57188.72;5079191;27;45536;-75
2022/03/15 02:21:36;;;;;;;;;6.33;5.33;;;;;-147.59;100.00;57188.72;5079146;27;45319;-75
2022/03/15 02:24:02;;;;;;;;;6.00;5.00;;;;;-147.59;100.00;57188.72;5097456;27;46214;-75
2022/03/15 02:26:28;;;;;;;;;8.33;6.33;;;;;-147.59;100.00;57188.72;5078780;27;45268;-75
2022/03/15 02:28:54;;;;;;;;;3.67;3.67;;;;;-147.59;100.00;57188.72;5097450;27;45375;-75
2022/03/15 02:31:20;;;;;;;;;5.33;5.33;;;;;-147.59;100.00;57188.72;5097004;27;45271;-75
2022/03/15 02:33:45;;;;;;;;;6.00;5.00;;;;;-147.59;100.00;57188.72;5097330;27;46257;-74
2022/03/15 02:36:11;;;;;;;;;3.33;3.00;;;;;-147.59;100.00;57188.72;5097166;27;45778;-75
2022/03/15 02:38:37;;;;;;;;;5.00;5.00;;;;;-147.59;100.00;57188.72;5096990;27;45463;-74
2022/03/15 02:41:02;;;;;;;;;12.00;6.00;;;;;-147.59;100.00;57188.72;5078634;27;45370;-74
2022/03/15 02:43:28;;;;;;;;;4.00;3.00;;;;;-147.59;100.00;57188.72;5096698;27;46354;-75
2022/03/15 02:45:53;;;;;;;;;6.33;6.33;;;;;-147.59;100.00;57188.72;5091871;27;45420;-75
2022/03/15 02:48:18;;;;;;;;;6.00;6.00;;;;;-147.59;100.00;57188.72;5058583;28;45302;-74
2022/03/15 02:50:44;;;;;;;;;8.00;5.00;;;;;-147.59;100.00;57188.72;5076307;27;45507;-74
2022/03/15 02:53:09;;;;;;;;;7.00;7.00;;;;;-147.59;100.00;57188.72;5076691;28;46210;-74
2022/03/15 02:55:34;;;;;;;;;5.67;5.67;;;;;-147.59;100.00;57188.72;5076535;28;45810;-75
2022/03/15 02:58:00;;;;;;;;;5.00;5.00;;;;;-147.59;100.00;57188.72;5076548;28;45674;-74
2022/03/15 03:00:29;;;;;;;;;4.67;4.67;;;;;-147.59;100.00;57188.72;5076160;28;45383;-74
2022/03/15 03:02:55;;;;;;;;;5.00;5.00;;;;;-147.59;100.00;57188.72;5076267;28;46224;-74
2022/03/15 03:05:21;;;;;;;;;6.00;6.00;;;;;-147.59;100.00;57188.72;5076246;28;45511;-74
2022/03/15 03:07:47;;;;;;;;;7.33;6.00;;;;;-147.59;100.00;57188.72;5076417;28;45403;-74
2022/03/15 03:10:14;;;;;;;;;6.00;6.00;;;;;-147.59;100.00;57188.72;5076339;28;45399;-75
2022/03/15 03:12:41;;;;;;;;;7.00;6.00;;;;;-147.59;100.00;57188.72;5074614;28;48169;-74
2022/03/15 03:15:11;;;;;;;;;6.00;5.00;;;;;-147.59;100.00;57188.72;5057596;28;45412;-75
2022/03/15 03:17:38;;;;;;;;;8.33;6.33;;;;;-147.59;100.00;57188.72;5076275;28;45500;-74
2022/03/15 03:20:06;;;;;;;;;5.67;5.00;;;;;-147.59;100.00;57188.72;5058208;28;45595;-75
2022/03/15 03:22:32;;;;;;;;;8.33;6.00;;;;;-147.59;100.00;57188.72;5075769;28;46318;-75
2022/03/15 03:24:57;;;;;;;;;8.00;7.00;;;;;-147.59;100.00;57188.72;5076117;28;45675;-74
2022/03/15 03:27:25;;;;;;;;;7.00;6.00;;;;;-147.59;100.00;57188.72;5075920;28;45783;-74
2022/03/15 03:29:51;;;;;;;;;5.67;5.00;;;;;-147.59;100.00;57188.72;5077702;27;45394;-75
2022/03/15 03:32:17;;;;;;;;;5.67;5.67;;;;;-147.59;100.00;57188.72;5096207;27;45989;-74
2022/03/15 03:34:43;;;;;;;;;7.00;6.00;;;;;-147.59;100.00;57188.72;5078074;27;45465;-74
2022/03/15 03:37:08;;;;;;;;;8.33;7.00;;;;;-147.59;100.00;57188.72;5096431;27;45381;-73
2022/03/15 03:39:33;;;;;;;;;9.67;6.00;;;;;-147.59;100.00;57188.72;5077940;27;45467;-74
2022/03/15 03:41:59;;;;;;;;;6.67;5.67;;;;;-147.59;100.00;57188.72;5096177;27;45360;-74
2022/03/15 03:44:24;;;;;;;;;7.00;7.00;;;;;-147.59;100.00;57188.72;5095722;27;45432;-74
2022/03/15 03:46:50;;;;;;;;;6.67;5.67;;;;;-147.59;100.00;57188.72;5096082;27;45381;-74
2022/03/15 03:49:15;;;;;;;;;9.33;8.67;;;;;-147.59;100.00;57188.72;5095922;27;45405;-74
2022/03/15 03:51:41;;;;;;;;;4.67;4.67;;;;;-147.59;100.00;57188.72;5095710;27;45353;-74
2022/03/15 03:54:06;;;;;;;;;5.33;5.33;;;;;-147.59;100.00;57188.72;5077532;27;45382;-74
2022/03/15 03:56:33;;;;;;;;;10.00;6.67;;;;;-147.59;100.00;57188.72;5096110;27;45297;-74
2022/03/15 03:58:59;;;;;;;;;5.00;5.00;;;;;-147.59;100.00;57188.72;5096041;27;45449;-75
2022/03/15 04:01:24;;;;;;;;;7.00;6.00;;;;;-147.59;100.00;57188.72;5078317;27;47019;-74
2022/03/15 04:03:50;;;;;;;;;8.33;6.00;;;;;-147.59;100.00;57188.72;5099724;27;45331;-74
2022/03/15 04:06:15;;;;;;;;;8.00;5.00;;;;;-147.59;100.00;57188.72;5081454;27;45397;-75
2022/03/15 04:08:44;;;;;;;;;7.00;5.33;;;;;-147.59;100.00;57188.72;5099436;27;45587;-74
2022/03/15 04:11:10;;;;;;;;;7.00;7.00;;;;;-147.59;100.00;57188.72;5099426;27;45390;-74
2022/03/15 04:13:41;;;;;;;;;6.00;6.00;;;;;-147.59;100.00;57188.72;5098753;27;45487;-74
2022/03/15 04:16:07;;;;;;;;;6.00;6.00;;;;;-147.59;100.00;57188.72;5097951;27;45433;-74
2022/03/15 04:18:32;;;;;;;;;7.00;6.00;;;;;-147.59;100.00;57188.72;5098984;27;45468;-75
2022/03/15 04:20:58;;;;;;;;;5.00;5.00;;;;;-147.59;100.00;57188.72;5099359;27;45453;-74
2022/03/15 04:23:23;;;;;;;;;4.33;4.00;;;;;-147.59;100.00;57188.72;5097295;27;45365;-74
2022/03/15 04:25:51;;;;;;;;;7.00;7.00;;;;;-147.59;100.00;57188.72;5078918;28;45334;-74
2022/03/15 04:28:16;;;;;;;;;5.00;5.00;;;;;-147.59;100.00;57188.72;5078774;28;45616;-75
2022/03/15 04:30:42;;;;;;;;;5.00;5.00;;;;;-147.59;100.00;57188.72;5078454;28;46314;-74
2022/03/15 04:33:07;;;;;;;;;7.00;7.00;;;;;-147.59;100.00;57188.72;5078840;28;45359;-74
2022/03/15 04:35:34;;;;;;;;;9.33;6.33;;;;;-147.59;100.00;57188.72;5078918;28;45378;-74
2022/03/15 04:38:00;;;;;;;;;8.33;6.33;;;;;-147.59;100.00;57188.72;5078938;28;45303;-74
2022/03/15 04:40:26;;;;;;;;;9.00;6.00;;;;;-147.59;100.00;57188.72;5078616;28;45369;-75
2022/03/15 04:42:53;;;;;;;;;7.00;6.00;;;;;-147.59;100.00;57188.72;5078361;28;45393;-74
2022/03/15 04:45:19;;;;;;;;;10.00;7.00;;;;;-147.59;100.00;57188.72;5078699;28;45328;-75
2022/03/15 04:47:45;;;;;;;;;5.67;5.67;;;;;-147.59;100.00;57188.72;5078365;28;45463;-74
2022/03/15 04:50:11;;;;;;;;;5.00;5.00;;;;;-147.59;100.00;57188.72;5078571;28;45505;-74
2022/03/15 04:52:36;;;;;;;;;5.00;5.00;;;;;-147.59;100.00;57188.72;5078251;28;45434;-75
2022/03/15 04:55:04;;;;;;;;;6.67;6.67;;;;;-147.59;100.00;57188.72;5077354;28;45503;-75
2022/03/15 04:57:29;;;;;;;;;6.00;6.00;;;;;-147.59;100.00;57188.72;5078033;28;45611;-74
2022/03/15 04:59:55;;;;;;;;;5.00;5.00;;;;;-147.59;100.00;57188.72;5078052;28;46253;-75
2022/03/15 05:02:21;;;;;;;;;5.67;5.67;;;;;-147.59;100.00;57188.72;5078459;28;45478;-75
2022/03/15 05:04:46;;;;;;;;;6.00;6.00;;;;;-147.59;100.00;57188.72;5078372;28;45509;-75
2022/03/15 05:07:12;;;;;;;;;5.33;5.00;;;;;-147.59;100.00;57188.72;5078323;28;45327;-75
2022/03/15 05:11:06;;;;;;;;;6.00;5.67;;;;;-147.59;100.00;57188.72;5078147;28;46222;-74
2022/03/15 05:12:26;;;;;;;;;7.00;5.00;;;;;-147.59;100.00;57188.72;5077878;27;45339;-74
2022/03/15 05:14:51;;;;;;;;;7.00;7.00;;;;;-147.59;100.00;57188.72;5078050;28;45280;-75
2022/03/15 05:17:17;;;;;;;;;6.67;5.67;;;;;-147.59;100.00;57188.72;5078036;27;45811;-75
2022/03/15 05:19:43;;;;;;;;;7.00;7.00;;;;;-147.59;100.00;57188.72;5077758;28;45552;-75
2022/03/15 05:22:10;;;;;;;;;5.33;5.33;;;;;-147.59;100.00;57188.72;5076824;28;45370;-74
2022/03/15 05:24:35;;;;;;;;;7.67;6.00;;;;;-147.59;100.00;57188.72;5089860;27;45355;-76
2022/03/15 05:27:01;;;;;;;;;6.67;6.67;;;;;-147.59;100.00;57188.72;5098295;27;45407;-76
2022/03/15 05:29:26;;;;;;;;;5.67;5.67;;;;;-147.59;100.00;57188.72;5098193;27;46175;-76
2022/03/15 05:31:51;;;;;;;;;7.67;7.67;;;;;-147.59;100.00;57188.72;5079781;27;45472;-76
2022/03/15 05:34:17;;;;;;;;;7.67;6.00;;;;;-147.59;100.00;57188.72;5098715;27;45990;-76
2022/03/15 05:36:43;;;;;;;;;10.00;6.00;;;;;-147.59;100.00;57188.72;5098072;27;45485;-76
2022/03/15 05:39:09;;;;;;;;;10.00;9.00;;;;;-147.59;100.00;57188.72;5097675;27;46645;-76
2022/03/15 05:41:35;;;;;;;;;7.33;6.00;;;;;-147.59;100.00;57188.72;5097671;27;45340;-76
2022/03/15 05:44:00;;;;;;;;;10.67;6.33;;;;;-147.59;100.00;57188.72;5097808;27;45378;-74
2022/03/15 05:46:26;;;;;;;;;7.33;7.33;;;;;-147.59;100.00;57188.72;5079938;27;45532;-77
2022/03/15 05:48:52;;;;;;;;;8.33;8.33;;;;;-147.59;100.00;57188.72;5097576;27;46684;-75
2022/03/15 05:51:18;;;;;;;;;7.67;7.33;;;;;-147.59;100.00;57188.72;5079022;27;45485;-86
2022/03/15 05:53:43;;;;;;;;;8.00;8.00;;;;;-147.59;100.00;57188.72;5098184;27;45374;-86
2022/03/15 05:56:09;;;;;;;;;10.00;10.00;;;;;-147.59;100.00;57188.72;5098565;27;45338;-88
2022/03/15 05:58:35;;;;;;;;;8.67;8.67;;;;;-147.59;100.00;57188.72;5079978;27;47008;-87
2022/03/15 06:01:01;;;;;;;;;11.00;9.33;;;;;-147.59;100.00;57188.72;5098085;27;46293;-84
2022/03/15 06:03:26;;;;;;;;;12.00;10.67;;;;;-147.59;100.00;57188.72;5098282;27;45343;-86
2022/03/15 06:05:52;;;;;;;;;12.00;9.00;;;;;-147.59;100.00;57188.72;5096580;27;45325;-86
2022/03/15 06:08:17;;;;;;;;;10.67;9.33;;;;;-147.59;100.00;57188.72;5085363;27;47476;-86
2022/03/15 06:10:43;;;;;;;;;11.00;11.00;;;;;-147.59;100.00;57188.72;5077183;28;45338;-87
2022/03/15 06:13:08;;;;;;;;;12.00;8.67;;;;;-147.59;100.00;57188.72;5059490;28;45466;-85
2022/03/15 06:15:34;;;;;;;;;11.33;11.00;;;;;-147.59;100.00;57188.72;5094179;27;45329;-86
2022/03/15 06:18:01;;;;;;;;;11.67;10.00;;;;;-147.59;100.00;57188.72;5069586;27;48098;-86
2022/03/15 06:20:27;;;;;;;;;10.67;10.67;;;;;-147.59;100.00;57188.72;5059084;28;45437;-85
2022/03/15 06:22:54;;;;;;;;;11.67;10.67;;;;;-147.59;100.00;57188.72;5058409;28;45613;-84
2022/03/15 06:25:20;;;;;;;;;11.00;9.33;;;;;-147.59;100.00;57188.72;5059801;28;45434;-86
2022/03/15 06:27:47;;;;;;;;;11.33;10.33;;;;;-147.59;100.00;57188.72;5077430;28;46369;-86
2022/03/15 06:30:16;;;;;;;;;14.00;12.00;;;;;-147.59;100.00;57188.72;5061000;28;45402;-87
2022/03/15 06:32:42;;;;;;;;;12.00;10.67;;;;;-147.59;100.00;57188.72;5077159;28;45308;-86
2022/03/15 06:35:10;;;;;;;;;10.33;10.00;;;;;-147.59;100.00;57188.72;5058847;28;45528;-87
2022/03/15 06:37:38;;;;;;;;;10.00;10.00;;;;;-147.59;100.00;57188.72;5065426;27;48309;-87
2022/03/15 06:40:06;;;;;;;;;11.33;11.33;;;;;-147.59;100.00;57188.72;5086217;27;45457;-87
2022/03/15 06:42:31;;;;;;;;;12.00;12.00;;;;;-147.59;100.00;57188.72;5085020;27;45462;-86
2022/03/15 06:44:57;;;;;;;;;10.00;10.00;;;;;-147.59;100.00;57188.72;5078841;27;45593;-87
2022/03/15 06:47:23;;;;;;;;;12.33;10.00;;;;;-147.59;100.00;57188.72;5078822;27;48071;-87
2022/03/15 06:49:48;;;;;;;;;12.00;12.00;;;;;-147.59;100.00;57188.72;5078935;27;45537;-87
2022/03/15 06:52:26;;;;;;;;;14.00;11.00;;;;;-147.59;100.00;57188.72;5096786;27;45260;-86
2022/03/15 06:54:51;;;;;;;;;7.00;7.00;;;;;-147.59;100.00;57188.72;5097338;27;45431;-87
2022/03/15 06:57:17;;;;;;;;;13.00;11.67;;;;;-147.59;100.00;57188.72;5078792;27;47461;-87
2022/03/15 06:59:42;;;;;;;;;13.67;10.33;;;;;-147.59;100.00;57188.72;5095685;27;45378;-87
2022/03/15 07:02:07;;;;;;;;;13.00;13.00;;;;;-147.59;100.00;57188.72;5096194;27;45443;-87
2022/03/15 07:04:33;;;;;;;;;11.67;11.67;;;;;-147.59;100.00;57188.72;5079375;27;45462;-86
2022/03/15 07:06:58;;;;;;;;;14.67;11.67;;;;;-147.59;100.00;57188.72;5078143;27;48010;-87
2022/03/15 07:09:24;;;;;;;;;12.00;12.00;;;;;-147.59;100.00;57188.72;5097273;27;45453;-87
2022/03/15 07:11:49;;;;;;;;;12.00;12.00;;;;;-147.59;100.00;57188.72;5078933;27;45600;-87
2022/03/15 07:14:15;;;;;;;;;14.00;11.67;;;;;-147.59;100.00;57188.72;5095496;27;45342;-86
2022/03/15 07:16:40;;;;;;;;;16.00;12.00;;;;;-147.59;100.00;57188.72;5078375;27;46988;-86
2022/03/15 07:19:06;;;;;;;;;14.33;12.00;;;;;-147.59;100.00;57188.72;5072375;28;45640;-87
2022/03/15 07:21:31;;;;;;;;;13.00;11.67;;;;;-147.59;100.00;57188.72;5058349;28;45339;-88
2022/03/15 07:23:58;;;;;;;;;12.00;12.00;;;;;-147.59;100.00;57188.72;5065543;28;45608;-87
2022/03/15 07:26:23;;;;;;;;;15.00;12.67;;;;;-147.59;100.00;57188.72;5058075;28;47158;-87
2022/03/15 07:28:48;;;;;;;;;14.33;12.33;;;;;-147.59;100.00;57188.72;5074917;28;45367;-87
2022/03/15 07:31:14;;;;;;;;;14.00;12.67;;;;;-147.59;100.00;57188.72;5092254;27;45287;-87
2022/03/15 07:33:39;;;;;;;;;12.00;12.00;;;;;-147.59;100.00;57188.72;5075118;27;45555;-86
2022/03/15 07:36:05;;;;;;;;;13.00;13.00;;;;;-147.59;100.00;57188.72;5073485;28;47419;-87
2022/03/15 07:38:32;;;;;;;;;15.00;11.00;;;;;-147.59;100.00;57188.72;5076383;28;45320;-87
2022/03/15 07:41:00;;;;;;;;;14.33;14.00;;;;;-147.59;100.00;57188.72;5075376;28;45381;-87
2022/03/15 07:43:26;;;;;;;;;16.33;14.33;;;;;-147.59;100.00;57188.72;5058989;28;45490;-87
2022/03/15 07:45:55;;;;;;;;;13.67;13.33;;;;;-147.59;100.00;57188.72;5078367;27;47110;-87
2022/03/15 07:48:20;;;;;;;;;13.00;13.00;;;;;-147.59;100.00;57188.72;5062195;28;46184;-87
2022/03/15 07:50:46;;;;;;;;;13.00;13.00;;;;;-147.59;100.00;57188.72;5074786;28;45583;-87
2022/03/15 07:53:12;;;;;;;;;11.67;10.33;;;;;-147.59;100.00;57188.72;5058119;28;45338;-88
2022/03/15 07:55:38;;;;;;;;;13.67;13.67;;;;;-147.59;100.00;57188.72;5075040;28;48179;-87
2022/03/15 07:58:04;;;;;;;;;15.33;13.00;;;;;-147.59;100.00;57188.72;5074730;27;45298;-87
2022/03/15 08:00:30;;;;;;;;;13.67;13.33;;;;;-147.59;100.00;57188.72;5076373;27;45394;-87
2022/03/15 08:02:56;;;;;;;;;14.00;11.00;;;;;-147.59;100.00;57188.72;5078003;27;45532;-87
2022/03/15 08:05:22;;;;;;;;;16.33;14.00;;;;;-147.59;100.00;57188.72;5077552;27;46932;-87
2022/03/15 08:07:48;;;;;;;;;11.00;11.00;;;;;-147.59;100.00;57188.72;5078266;27;45597;-87
2022/03/15 08:10:13;;;;;;;;;14.67;13.00;;;;;-147.59;100.00;57188.72;5079137;27;45181;-87
2022/03/15 08:12:39;;;;;;;;;17.33;16.33;;;;;-147.59;100.00;57188.72;5098240;27;45574;-88
2022/03/15 08:15:06;;;;;;;;;14.33;12.33;;;;;-147.59;100.00;57188.72;5095154;27;48080;-87
2022/03/15 08:17:32;;;;;;;;;14.00;14.00;;;;;-147.59;100.00;57188.72;5077771;27;45829;-87
2022/03/15 08:19:58;;;;;;;;;12.00;11.00;;;;;-147.59;100.00;57188.72;5087697;27;45460;-87
2022/03/15 08:22:25;;;;;;;;;15.33;13.67;;;;;-147.59;100.00;57188.72;5076751;28;45350;-87
2022/03/15 08:24:50;;;;;;;;;16.33;14.67;;;;;-147.59;100.00;57188.72;5057662;28;46099;-87
2022/03/15 08:27:16;;;;;;;;;13.33;12.00;;;;;-147.59;100.00;57188.72;5057416;28;45795;-87
2022/03/15 08:29:43;;;;;;;;;6.00;6.00;;;;;-147.59;100.00;57188.72;5057734;28;45312;-87
2022/03/15 08:32:08;;;;;;;;;16.00;15.00;;;;;-147.59;100.00;57188.72;5073907;27;45656;-87
2022/03/15 08:34:34;;;;;;;;;14.67;13.33;;;;;-147.59;100.00;57188.72;5094711;27;47082;-88
2022/03/15 08:36:59;;;;;;;;;15.67;12.67;;;;;-147.59;100.00;57188.72;5094972;27;45200;-86
2022/03/15 08:39:25;;;;;;;;;14.67;13.33;;;;;-147.59;100.00;57188.72;5073810;28;45743;-84
2022/03/15 08:41:51;;;;;;;;;16.67;15.00;;;;;-147.59;100.00;57188.72;5078279;27;45284;-82
2022/03/15 08:44:18;;;;;;;;;15.00;14.00;;;;;-147.59;100.00;57188.72;5088862;27;45376;-76
2022/03/15 08:46:47;;;;;;;;;13.33;13.33;;;;;-147.59;100.00;57188.72;5068359;27;45522;-78
2022/03/15 08:49:14;;;;;;;;;14.33;13.33;;;;;-147.59;100.00;57188.72;5090678;27;45556;-80
2022/03/15 08:51:40;;;;;;;;;14.00;14.00;;;;;-147.59;100.00;57188.72;5088685;27;45532;-79
2022/03/15 08:54:05;;;;;;;;;14.67;14.33;;;;;-147.59;100.00;57188.72;5087109;27;45608;-79
2022/03/15 08:56:31;;;;;;;;;16.67;14.00;;;;;-147.59;100.00;57188.72;5084034;27;45427;-79
2022/03/15 08:58:56;;;;;;;;;13.00;13.00;;;;;-147.59;100.00;57188.72;5084784;27;45576;-80
2022/03/15 09:01:25;;;;;;;;;14.00;14.00;;;;;-147.59;100.00;57188.72;5071092;27;45550;-80
2022/03/15 09:03:50;;;;;;;;;16.33;15.67;;;;;-147.59;100.00;57188.72;5097687;27;46096;-79
2022/03/15 09:06:16;;;;;;;;;19.67;18.33;;;;;-147.59;100.00;57188.72;5064994;27;46015;-80
2022/03/15 09:08:41;;;;;;;;;15.00;13.33;;;;;-147.59;100.00;57188.72;5079784;27;45371;-79
2022/03/15 09:11:08;;;;;;;;;16.33;14.00;;;;;-147.59;100.00;57188.72;5097084;27;45716;-79
2022/03/15 09:13:33;;;;;;;;;17.67;15.00;;;;;-147.59;100.00;57188.72;5097558;27;45389;-80
2022/03/15 09:15:59;;;;;;;;;16.67;16.00;;;;;-147.59;100.00;57188.72;5070997;27;45426;-79
2022/03/15 09:18:27;;;;;;;;;16.00;15.00;;;;;-147.59;100.00;57188.72;5087771;27;45346;-78
2022/03/15 09:20:53;;;;;;;;;12.33;12.33;;;;;-147.59;100.00;57188.72;5092073;27;45644;-78
2022/03/15 09:23:19;;;;;;;;;13.00;13.00;;;;;-147.59;100.00;57188.72;5066976;27;48248;-79
2022/03/15 09:25:44;;;;;;;;;17.33;17.00;;;;;-147.59;100.00;57188.72;5093914;27;45480;-78
2022/03/15 09:28:10;;;;;;;;;15.00;15.00;;;;;-147.59;100.00;57188.72;5083614;27;45602;-79
2022/03/15 09:30:36;;;;;;;;;14.67;14.67;;;;;-147.59;100.00;57188.72;5096869;27;45331;-78
2022/03/15 09:33:02;;;;;;;;;14.67;12.67;;;;;-147.59;100.00;57188.72;5084055;27;47329;-78
2022/03/15 09:35:27;;;;;;;;;19.00;17.00;;;;;-147.59;100.00;57188.72;5090112;27;45434;-76
2022/03/15 09:37:54;;;;;;;;;17.33;15.67;;;;;-147.59;100.00;57188.72;5090381;27;45715;-78
2022/03/15 09:40:25;;;;;;;;;16.00;16.00;;;;;-147.59;100.00;57188.72;5083675;27;45707;-79
2022/03/15 09:42:56;;;;;;;;;21.00;19.33;;;;;-147.59;100.00;57188.72;5068653;27;48048;-82
2022/03/15 09:45:28;;;;;;;;;19.67;18.33;;;;;-147.59;100.00;57188.72;5084030;27;45991;-84
2022/03/15 09:47:59;;;;;;;;;17.67;17.67;;;;;-147.59;100.00;57188.72;5081671;27;45406;-83
2022/03/15 09:50:25;;;;;;;;;18.67;17.33;;;;;-147.59;100.00;57188.72;5076351;27;45496;-83
2022/03/15 09:52:54;;;;;;;;;21.00;19.00;;;;;-147.59;100.00;57188.72;5088003;27;46566;-87
2022/03/15 09:55:20;;;;;;;;;19.33;16.00;;;;;-147.59;100.00;57188.72;5085290;27;45430;-86
2022/03/15 09:57:46;;;;;;;;;20.67;20.67;;;;;-147.59;100.00;57188.72;5086329;27;45446;-88
2022/03/15 10:00:13;;;;;;;;;20.00;18.33;;;;;-147.59;100.00;57188.72;5079781;27;45432;-88
2022/03/15 10:02:43;;;;;;;;;20.00;18.33;;;;;-147.59;100.00;57188.72;5088763;27;45438;-87
2022/03/15 10:05:10;;;;;;;;;16.33;16.33;;;;;-147.59;100.00;57188.72;5068284;27;45872;-88
2022/03/15 10:07:36;;;;;;;;;19.33;19.33;;;;;-147.59;100.00;57188.72;5076710;27;45452;-86
2022/03/15 10:10:04;;;;;;;;;20.00;18.00;;;;;-147.59;100.00;57188.72;5079644;27;45692;-87
2022/03/15 10:12:30;;;;;;;;;18.00;18.00;;;;;-147.59;100.00;57188.72;5090880;27;45429;-86
2022/03/15 10:14:56;;;;;;;;;14.67;14.67;;;;;-147.59;100.00;57188.72;5088267;27;45499;-86
2022/03/15 10:17:22;;;;;;;;;21.00;17.00;;;;;-147.59;100.00;57188.72;5076419;27;45443;-83
2022/03/15 10:19:56;;;;;;;;;23.33;20.00;;;;;-147.59;100.00;57188.72;5078739;27;45602;-87
2022/03/15 10:22:26;;;;;;;;;24.67;18.33;;;;;-147.59;100.00;57188.72;5073356;28;47512;-80
2022/03/15 10:24:52;;;;;;;;;20.00;18.00;;;;;-147.59;100.00;57188.72;5067820;27;45505;-79
2022/03/15 10:27:18;;;;;;;;;21.00;17.00;;;;;-147.59;100.00;57188.72;5063532;28;45512;-82
2022/03/15 10:29:45;;;;;;;;;22.67;20.00;;;;;-147.59;100.00;57188.72;5058788;27;45760;-87
2022/03/15 10:32:10;;;;;;;;;18.00;17.00;;;;;-147.59;100.00;57188.72;5076906;27;45648;-81
2022/03/15 10:34:37;;;;;;;;;21.33;21.33;;;;;-147.59;100.00;57188.72;5071194;28;45837;-78
2022/03/15 10:37:03;;;;;;;;;25.00;19.67;;;;;-147.59;100.00;57188.72;5060547;27;45479;-82
2022/03/15 10:39:28;;;;;;;;;23.67;21.33;;;;;-147.59;100.00;57188.72;5070507;28;45311;-80
2022/03/15 10:41:59;;;;;;;;;16.00;14.33;;;;;-147.59;100.00;57188.72;5075940;27;46217;-81
2022/03/15 10:44:33;;;;;;;;;21.00;18.67;;;;;-147.59;100.00;57188.72;5058033;27;45473;-84
2022/03/15 10:47:04;;;;;;;;;22.67;20.33;;;;;-147.59;100.00;57188.72;5067384;28;45487;-79
2022/03/15 10:49:34;;;;;;;;;21.67;18.67;;;;;-147.59;100.00;57188.72;5065906;28;45505;-81
2022/03/15 10:51:59;;;;;;;;;20.67;17.00;;;;;-147.59;100.00;57188.72;5076878;27;47311;-78
2022/03/15 10:54:26;;;;;;;;;18.00;18.00;;;;;-147.59;100.00;57188.72;5073048;27;45386;-79
2022/03/15 10:56:58;;;;;;;;;19.33;17.67;;;;;-147.59;100.00;57188.72;5079618;27;45560;-82